CDT,Max TemperatureF,Mean TemperatureF,Min TemperatureF,Max Dew PointF,MeanDew PointF,Min DewpointF,Max Humidity, Mean Humidity, Min Humidity, Max Sea Level PressureIn, Mean Sea Level PressureIn, Min Sea Level PressureIn, Max VisibilityMiles, Mean VisibilityMiles, Min VisibilityMiles, Max Wind SpeedMPH, Mean Wind SpeedMPH, Max Gust SpeedMPH,PrecipitationIn, CloudCover, Events, WindDirDegrees
2013-10-1,89,74,60,72,66,57,100,80,40,29.95,29.90,29.85,10,8,0,10,3,16,0.00,4,Fog,166
2013-10-2,89,81,73,73,71,66,94,82,46,29.99,29.93,29.86,10,10,5,12,8,16,0.00,7,,149
2013-10-3,91,82,73,73,71,64,94,76,41,29.95,29.91,29.83,10,10,10,15,8,20,0.00,5,,164
2013-10-4,89,81,73,72,70,66,94,76,46,29.93,29.90,29.84,10,10,10,17,11,26,0.00,4,,169
2013-10-5,86,72,60,72,62,39,100,70,42,30.11,29.97,29.90,10,10,10,20,10,25,0.00,5,,186
2013-10-6,80,66,51,54,44,30,94,58,17,30.16,30.12,30.08,10,10,8,21,9,25,0.00,3,Thunderstorm,327
2013-10-7,84,65,46,45,40,36,76,56,18,30.19,30.13,30.05,10,10,10,7,1,,0.00,0,,9
2013-10-8,82,65,48,52,45,43,88,61,26,30.13,30.07,29.99,10,10,10,8,1,,0.00,0,,154
2013-10-9,82,66,50,57,50,45,82,63,37,30.09,30.03,29.97,10,10,10,14,2,16,0.00,0,,152
2013-10-10,86,70,57,66,60,55,100,73,45,30.07,30.00,29.90,10,10,10,15,5,22,0.00,1,,158
2013-10-11,87,78,69,73,69,66,94,81,55,29.97,29.91,29.85,10,10,10,14,8,20,0.00,7,Rain,162
2013-10-12,91,81,71,73,72,68,100,83,46,30.06,29.97,29.92,10,10,4,14,6,21,0.00,7,Thunderstorm,142
2013-10-13,75,70,66,70,68,64,100,91,73,30.19,30.11,30.05,10,9,5,15,7,20,0.00,8,Rain-Thunderstorm,90
2013-10-14,93,81,69,73,70,70,100,92,49,30.12,30.06,29.95,10,6,2,10,6,,0.00,8,,128
2013-10-15,80,68,57,72,64,54,94,84,69,30.05,29.98,29.91,10,10,10,16,9,23,0.00,8,Rain,303
2013-10-16,62,56,53,55,53,52,94,90,82,30.10,30.05,30.02,10,9,5,15,9,18,0.00,8,Rain,349
2013-10-17,73,60,48,52,48,43,87,72,35,30.16,30.08,30.00,10,10,10,9,5,,0.00,1,,347
2013-10-18,71,61,51,63,54,48,94,82,53,30.03,29.99,29.91,10,10,7,8,1,,0.00,6,,51
2013-10-19,66,55,44,55,43,36,88,72,34,30.24,30.14,30.06,10,10,10,18,13,28,0.00,4,,349
2013-10-20,73,56,39,48,41,36,93,71,29,30.12,30.04,29.93,10,10,10,16,3,18,0.00,0,,180
2013-10-21,78,68,57,64,56,46,88,76,61,30.10,29.98,29.92,10,10,10,17,5,23,0.00,3,Rain,186
2013-10-22,75,62,48,52,46,37,87,66,27,30.20,30.13,30.09,10,10,10,18,10,22,0.00,2,,333
2013-10-23,80,63,46,46,43,39,87,63,23,30.18,30.13,30.09,10,10,10,12,4,,0.00,0,,233
2013-10-24,80,63,46,48,45,41,87,65,24,30.26,30.19,30.14,10,10,10,9,1,,0.00,0,,163
2013-10-25,75,62,48,57,51,46,94,74,50,30.36,30.28,30.23,10,10,10,9,2,,0.00,2,,98
2013-10-26,80,68,59,63,59,55,94,77,54,30.26,30.18,30.07,10,8,5,14,6,21,0.00,5,,146
2013-10-27,71,66,62,64,62,59,100,89,73,30.14,30.08,30.04,10,9,2,9,5,,0.00,6,Thunderstorm,98
2013-10-28,78,70,62,66,64,63,100,86,61,30.12,30.05,30.00,10,9,2,13,4,17,0.00,6,,146
2013-10-29,82,76,69,70,66,64,88,81,58,30.09,30.05,29.99,10,10,10,20,9,25,0.00,6,,160
2013-10-30,80,76,71,73,71,68,100,92,74,30.06,29.95,29.84,10,8,2,16,7,23,0.00,8,Rain-Thunderstorm,158
2013-10-31,78,64,51,72,58,30,100,77,17,29.92,29.84,29.75,10,10,10,18,8,24,0.00,4,Thunderstorm,243